createdAt,value
2022-10-02T00:02:30.497Z,21.37
2022-10-02T00:05:00.996Z,23.37
2022-10-02T00:07:36.049Z,19.10
2022-10-02T00:10:11.566Z,14.57
2022-10-02T00:12:40.773Z,18.57
2022-10-02T00:15:15.501Z,20.87
2022-10-02T00:17:45.322Z,14.93
2022-10-02T00:20:15.114Z,25.80
2022-10-02T00:22:48.936Z,16.63
2022-10-02T00:25:24.629Z,18.07
2022-10-02T00:28:08.155Z,18.60
2022-10-02T00:30:43.361Z,16.53
2022-10-02T00:33:15.315Z,14.37
2022-10-02T00:35:56.762Z,20.97
2022-10-02T00:38:35.519Z,15.73
2022-10-02T00:41:20.452Z,22.80
2022-10-02T00:43:59.837Z,12.70
2022-10-02T00:46:41.229Z,17.33
2022-10-02T00:49:44.274Z,15.63
2022-10-02T00:52:24.932Z,19.77
2022-10-02T00:55:05.316Z,17.93
2022-10-02T00:57:43.846Z,12.87
2022-10-02T01:00:15.078Z,20.13
2022-10-02T01:03:09.994Z,19.50
2022-10-02T01:05:38.460Z,22.33
2022-10-02T01:08:06.696Z,14.63
2022-10-02T01:10:35.520Z,16.67
2022-10-02T01:13:03.129Z,20.73
2022-10-02T01:15:34.667Z,11.43
2022-10-02T01:18:03.144Z,17.57
2022-10-02T01:20:35.812Z,19.77
2022-10-02T01:23:07.902Z,12.80
2022-10-02T01:25:37.154Z,12.50
2022-10-02T01:28:05.746Z,27.67
2022-10-02T01:30:36.185Z,22.37
2022-10-02T01:33:05.099Z,12.70
2022-10-02T01:35:35.417Z,19.93
2022-10-02T01:38:04.916Z,12.77
2022-10-02T01:40:33.942Z,16.43
2022-10-02T01:43:04.707Z,17.10
2022-10-02T01:45:45.225Z,17.17
2022-10-02T01:48:16.652Z,23.83
2022-10-02T01:50:51.674Z,20.53
2022-10-02T01:53:23.659Z,20.33
2022-10-02T01:55:54.132Z,13.83
2022-10-02T01:58:26.421Z,17.43
2022-10-02T02:01:02.577Z,20.60
2022-10-02T02:03:39.559Z,23.83
2022-10-02T02:06:10.977Z,9.93
2022-10-02T02:08:46.503Z,10.53
2022-10-02T02:11:15.721Z,12.30
2022-10-02T02:13:48.581Z,16.07
2022-10-02T02:16:22.169Z,27.00
2022-10-02T02:18:53.254Z,13.73
2022-10-02T02:21:23.950Z,12.87
2022-10-02T02:23:52.451Z,14.53
2022-10-02T02:26:21.236Z,10.97
2022-10-02T02:28:54.680Z,14.97
2022-10-02T02:31:24.635Z,17.47
2022-10-02T02:33:55.633Z,15.67
2022-10-02T02:36:26.024Z,8.80
2022-10-02T02:38:58.645Z,15.50
2022-10-02T02:41:28.800Z,12.20
2022-10-02T02:44:02.030Z,16.87
2022-10-02T02:46:33.895Z,17.77
2022-10-02T02:49:05.288Z,8.33
2022-10-02T02:51:37.021Z,15.53
2022-10-02T02:54:07.125Z,14.10
2022-10-02T02:56:35.178Z,17.80
2022-10-02T02:59:07.099Z,16.37
2022-10-02T03:01:35.057Z,12.53
2022-10-02T03:04:02.957Z,15.03
2022-10-02T03:06:37.759Z,11.57
2022-10-02T03:09:07.232Z,15.97
2022-10-02T03:11:49.295Z,12.73
2022-10-02T03:14:52.104Z,17.50
2022-10-02T03:17:27.235Z,11.90
2022-10-02T03:20:01.842Z,11.67
2022-10-02T03:22:46.988Z,18.23
2022-10-02T03:25:17.864Z,11.93
2022-10-02T03:27:49.652Z,19.17
2022-10-02T03:30:20.576Z,15.73
2022-10-02T03:32:51.361Z,14.77
2022-10-02T03:35:19.127Z,8.30
2022-10-02T03:37:50.052Z,14.97
2022-10-02T03:40:17.710Z,11.87
2022-10-02T03:42:45.252Z,11.60
2022-10-02T03:45:27.303Z,12.13
2022-10-02T03:48:02.121Z,12.30
2022-10-02T03:50:32.867Z,12.20
2022-10-02T03:53:10.739Z,12.20
2022-10-02T03:55:40.076Z,10.90
2022-10-02T03:58:12.758Z,11.20
2022-10-02T04:00:44.187Z,13.20
2022-10-02T04:03:16.250Z,11.80
2022-10-02T04:05:49.074Z,10.90
2022-10-02T04:08:19.556Z,8.87
2022-10-02T04:10:52.086Z,9.80
2022-10-02T04:13:24.698Z,8.70
2022-10-02T04:16:01.981Z,12.53
2022-10-02T04:18:35.116Z,12.77
2022-10-02T04:21:07.012Z,13.23
2022-10-02T04:23:36.807Z,11.27
2022-10-02T04:26:08.457Z,12.00
2022-10-02T04:28:39.023Z,12.03
2022-10-02T04:31:10.569Z,9.17
2022-10-02T04:33:39.981Z,12.83
2022-10-02T04:36:15.521Z,12.60
2022-10-02T04:39:00.704Z,13.77
2022-10-02T04:41:41.357Z,9.70
2022-10-02T04:44:17.579Z,12.80
2022-10-02T04:46:57.390Z,9.87
2022-10-02T04:49:33.886Z,9.67
2022-10-02T04:52:09.809Z,14.33
2022-10-02T04:54:49.042Z,11.83
2022-10-02T04:57:28.049Z,15.50
2022-10-02T05:00:06.297Z,11.10
2022-10-02T05:02:41.338Z,13.10
2022-10-02T05:05:18.494Z,15.30
2022-10-02T05:08:03.882Z,16.70
2022-10-02T05:10:41.369Z,9.27
2022-10-02T05:13:19.685Z,10.63
2022-10-02T05:16:00.011Z,14.07
2022-10-02T05:18:56.827Z,17.23
2022-10-02T05:22:02.968Z,16.93
2022-10-02T05:24:48.969Z,15.53
2022-10-02T05:27:38.729Z,25.87
2022-10-02T05:30:08.951Z,19.43
2022-10-02T05:33:04.667Z,18.27
2022-10-02T05:35:44.144Z,18.43
2022-10-02T05:38:23.307Z,17.43
2022-10-02T05:41:01.266Z,9.47
2022-10-02T05:43:34.927Z,19.97
2022-10-02T05:46:06.829Z,15.87
2022-10-02T05:48:39.434Z,19.43
2022-10-02T05:51:10.259Z,18.00
2022-10-02T05:53:42.036Z,23.27
2022-10-02T05:56:15.600Z,15.23
2022-10-02T05:58:50.775Z,17.97
2022-10-02T06:01:21.952Z,15.07
2022-10-02T06:03:52.524Z,20.60
2022-10-02T06:06:24.982Z,17.33
2022-10-02T06:08:58.455Z,24.37
2022-10-02T06:11:30.836Z,17.70
2022-10-02T06:14:00.258Z,20.53
2022-10-02T06:16:34.508Z,16.07
2022-10-02T06:19:06.773Z,16.87
2022-10-02T06:21:38.626Z,20.07
2022-10-02T06:24:12.426Z,12.40
2022-10-02T06:26:46.142Z,13.83
2022-10-02T06:29:21.578Z,17.20
2022-10-02T06:32:04.972Z,10.83
2022-10-02T06:34:32.634Z,12.70
2022-10-02T06:37:26.678Z,12.83
2022-10-02T06:40:13.737Z,9.03
2022-10-02T06:42:52.725Z,7.93
2022-10-02T06:45:25.372Z,11.27
2022-10-02T06:48:06.478Z,9.93
2022-10-02T06:50:52.472Z,7.50
2022-10-02T06:53:30.818Z,11.27
2022-10-02T06:56:04.063Z,7.53
2022-10-02T06:58:42.015Z,13.30
2022-10-02T07:01:15.503Z,8.07
2022-10-02T07:03:56.334Z,11.70
2022-10-02T07:06:37.127Z,12.00
2022-10-02T07:09:44.711Z,11.63
2022-10-02T07:12:39.991Z,10.43
2022-10-02T07:15:26.023Z,13.67
2022-10-02T07:18:01.424Z,12.47
2022-10-02T07:20:35.079Z,7.40
2022-10-02T07:23:16.280Z,10.20
2022-10-02T07:26:08.648Z,11.03
2022-10-02T07:28:42.231Z,7.43
2022-10-02T07:31:18.887Z,10.33
2022-10-02T07:33:54.111Z,10.00
2022-10-02T07:36:31.349Z,8.10
2022-10-02T07:39:06.330Z,7.00
2022-10-02T07:42:05.128Z,10.70
2022-10-02T07:45:05.520Z,9.10
2022-10-02T07:48:04.269Z,12.70
2022-10-02T07:50:37.619Z,9.20
2022-10-02T07:53:09.872Z,11.37
2022-10-02T07:55:41.515Z,8.07
2022-10-02T07:58:12.922Z,16.00
2022-10-02T08:00:44.492Z,10.03
2022-10-02T08:03:17.856Z,7.27
2022-10-02T08:05:48.376Z,8.30
2022-10-02T08:08:20.384Z,6.73
2022-10-02T08:10:50.141Z,8.73
2022-10-02T08:13:20.989Z,8.90
2022-10-02T08:15:51.968Z,9.10
2022-10-02T08:18:39.756Z,10.03
2022-10-02T08:21:12.663Z,10.83
2022-10-02T08:23:44.054Z,9.17
2022-10-02T08:26:16.164Z,11.50
2022-10-02T08:28:47.934Z,13.90
2022-10-02T08:31:15.927Z,7.70
2022-10-02T08:33:45.079Z,7.43
2022-10-02T08:36:44.241Z,9.83
2022-10-02T08:39:51.364Z,14.10
2022-10-02T08:42:38.649Z,6.10
2022-10-02T08:45:42.030Z,7.63
2022-10-02T08:48:58.310Z,10.13
2022-10-02T08:51:51.040Z,9.17
2022-10-02T08:54:35.008Z,7.80
2022-10-02T08:57:15.008Z,9.80
2022-10-02T08:59:57.172Z,9.90
2022-10-02T09:02:51.259Z,8.93
2022-10-02T09:05:39.435Z,8.17
2022-10-02T09:08:34.389Z,6.87
2022-10-02T09:11:35.902Z,8.00
2022-10-02T09:14:43.676Z,6.17
2022-10-02T09:17:44.344Z,8.60
2022-10-02T09:20:49.192Z,10.40
2022-10-02T09:23:36.754Z,19.57
2022-10-02T09:26:19.595Z,15.20
2022-10-02T09:29:19.637Z,12.47
2022-10-02T09:32:16.168Z,12.67
2022-10-02T09:34:58.381Z,11.90
2022-10-02T09:37:44.143Z,14.23
2022-10-02T09:40:32.979Z,10.93
2022-10-02T09:43:11.056Z,11.23
2022-10-02T09:45:56.347Z,19.93
2022-10-02T09:48:47.673Z,13.63
2022-10-02T09:51:50.981Z,8.40
2022-10-02T09:54:59.912Z,9.43
2022-10-02T09:57:58.443Z,12.03
2022-10-02T10:00:43.660Z,17.83
2022-10-02T10:03:36.338Z,17.20
2022-10-02T10:06:44.238Z,9.57
2022-10-02T10:09:36.396Z,12.53
2022-10-02T10:12:16.582Z,9.30
2022-10-02T10:15:11.369Z,9.70
2022-10-02T10:18:17.243Z,12.70
2022-10-02T10:21:08.901Z,11.57
2022-10-02T10:24:06.295Z,13.63
2022-10-02T10:27:06.267Z,12.97
2022-10-02T10:30:07.324Z,7.30
2022-10-02T10:33:09.148Z,10.20
2022-10-02T10:36:29.657Z,7.20
2022-10-02T10:39:06.925Z,7.10
2022-10-02T10:42:14.982Z,4.77
2022-10-02T10:45:15.222Z,10.23
2022-10-02T10:48:11.143Z,9.73
2022-10-02T10:50:55.637Z,7.53
2022-10-02T10:53:45.739Z,8.20
2022-10-02T10:56:26.055Z,9.07
2022-10-02T10:59:08.603Z,16.27
2022-10-02T11:01:45.217Z,14.63
2022-10-02T11:04:29.468Z,12.63
2022-10-02T11:07:15.589Z,14.80
2022-10-02T11:10:02.021Z,12.97
2022-10-02T11:12:57.248Z,17.53
2022-10-02T11:15:39.514Z,12.33
2022-10-02T11:18:22.234Z,15.97
2022-10-02T11:21:11.527Z,17.13
2022-10-02T11:24:15.927Z,10.37
2022-10-02T11:27:00.825Z,13.47
2022-10-02T11:29:49.463Z,12.03
2022-10-02T11:32:46.463Z,17.37
2022-10-02T11:35:23.415Z,16.30
2022-10-02T11:38:35.400Z,20.27
2022-10-02T11:41:20.613Z,15.27
2022-10-02T11:44:13.091Z,17.57
2022-10-02T11:46:56.328Z,15.60
2022-10-02T11:49:36.293Z,18.13
2022-10-02T11:52:47.339Z,10.97
2022-10-02T11:55:28.159Z,11.20
2022-10-02T11:58:06.107Z,12.00
2022-10-02T12:00:53.716Z,12.23
2022-10-02T12:03:25.275Z,17.07
2022-10-02T12:05:58.873Z,21.63
2022-10-02T12:08:34.818Z,18.57
2022-10-02T12:11:10.030Z,13.17
2022-10-02T12:13:48.664Z,12.10
2022-10-02T12:16:24.558Z,15.77
2022-10-02T12:19:00.507Z,18.47
2022-10-02T12:21:55.092Z,12.67
2022-10-02T12:24:52.673Z,13.67
2022-10-02T12:27:36.748Z,12.70
2022-10-02T12:30:08.821Z,19.33
2022-10-02T12:32:47.990Z,19.37
2022-10-02T12:35:25.073Z,14.60
2022-10-02T12:37:58.107Z,17.67
2022-10-02T12:40:31.795Z,21.80
2022-10-02T12:43:35.453Z,16.30
2022-10-02T12:46:35.681Z,13.63
2022-10-02T12:49:22.504Z,20.07
2022-10-02T12:52:07.858Z,18.10
2022-10-02T12:55:04.788Z,10.07
2022-10-02T12:57:53.442Z,13.03
2022-10-02T13:00:24.854Z,16.50
2022-10-02T13:03:33.532Z,22.97
2022-10-02T13:06:37.934Z,18.13
2022-10-02T13:09:16.832Z,19.13
2022-10-02T13:11:56.094Z,15.03
2022-10-02T13:14:48.637Z,15.50
2022-10-02T13:17:27.254Z,13.57
2022-10-02T13:20:03.238Z,14.70
2022-10-02T13:22:38.338Z,11.17
2022-10-02T13:25:26.941Z,13.80
2022-10-02T13:28:04.610Z,16.33
2022-10-02T13:30:36.149Z,16.50
2022-10-02T13:33:16.933Z,11.03
2022-10-02T13:35:54.121Z,16.00
2022-10-02T13:38:34.418Z,11.30
2022-10-02T13:41:13.236Z,12.00
2022-10-02T13:43:59.175Z,15.63
2022-10-02T13:46:38.377Z,16.53
2022-10-02T13:49:15.126Z,14.60
2022-10-02T13:51:48.996Z,11.40
2022-10-02T13:54:45.547Z,14.80
2022-10-02T13:57:27.588Z,12.30
2022-10-02T14:00:09.397Z,18.03
2022-10-02T14:02:55.734Z,16.07
2022-10-02T14:05:36.145Z,9.80
2022-10-02T14:08:19.022Z,11.37
2022-10-02T14:11:00.056Z,14.63
2022-10-02T14:13:43.177Z,16.67
2022-10-02T14:16:23.634Z,9.10
2022-10-02T14:19:20.093Z,13.33
2022-10-02T14:22:02.045Z,11.67
2022-10-02T14:24:57.014Z,11.50
2022-10-02T14:27:56.038Z,20.87
2022-10-02T14:30:24.982Z,16.13
2022-10-02T14:33:01.605Z,14.37
2022-10-02T14:35:36.352Z,11.53
2022-10-02T14:38:53.969Z,15.33
2022-10-02T14:41:33.700Z,14.57
2022-10-02T14:44:23.142Z,16.40
2022-10-02T14:47:01.981Z,12.50
2022-10-02T14:49:41.525Z,11.23
2022-10-02T14:52:19.741Z,7.93
2022-10-02T14:55:10.575Z,18.33
2022-10-02T14:58:01.333Z,20.03
2022-10-02T15:00:36.292Z,11.83
2022-10-02T15:03:25.558Z,14.97
2022-10-02T15:06:03.004Z,12.53
2022-10-02T15:08:35.541Z,16.23
2022-10-02T15:11:06.276Z,20.23
2022-10-02T15:13:41.242Z,13.03
2022-10-02T15:16:44.441Z,27.60
2022-10-02T15:19:17.749Z,12.80
2022-10-02T15:21:51.643Z,20.10
2022-10-02T15:24:29.778Z,15.40
2022-10-02T15:27:04.874Z,14.10
2022-10-02T15:29:40.472Z,15.30
2022-10-02T15:32:34.582Z,14.93
2022-10-02T15:35:11.548Z,15.13
2022-10-02T15:37:46.866Z,15.03
2022-10-02T15:40:24.982Z,15.17
2022-10-02T15:42:58.615Z,24.03
2022-10-02T15:45:44.395Z,20.53
2022-10-02T15:48:31.072Z,18.80
2022-10-02T15:51:02.711Z,14.07
2022-10-02T15:53:42.736Z,19.87
2022-10-02T15:56:28.370Z,20.83
2022-10-02T15:59:07.881Z,16.17
2022-10-02T16:01:45.253Z,14.10
2022-10-02T16:04:21.346Z,13.43
2022-10-02T16:07:16.682Z,19.87
2022-10-02T16:09:51.150Z,16.07
2022-10-02T16:12:38.981Z,19.07
2022-10-02T16:15:17.191Z,11.93
2022-10-02T16:18:07.486Z,24.07
2022-10-02T16:20:57.250Z,13.23
2022-10-02T16:23:44.557Z,15.80
2022-10-02T16:26:23.921Z,22.13
2022-10-02T16:28:57.587Z,20.37
2022-10-02T16:31:41.165Z,27.60
2022-10-02T16:34:20.637Z,19.90
2022-10-02T16:36:53.057Z,24.83
2022-10-02T16:39:33.749Z,21.50
2022-10-02T16:42:03.003Z,14.43
2022-10-02T16:44:58.248Z,19.03
2022-10-02T16:47:30.569Z,20.10
2022-10-02T16:50:01.928Z,16.47
2022-10-02T16:52:33.227Z,21.30
2022-10-02T16:55:09.209Z,17.20
2022-10-02T16:57:52.658Z,20.90
2022-10-02T17:00:25.066Z,26.37
2022-10-02T17:02:58.423Z,19.20
2022-10-02T17:05:29.627Z,26.57
2022-10-02T17:08:00.308Z,20.40
2022-10-02T17:10:39.214Z,19.70
2022-10-02T17:13:16.119Z,20.37
2022-10-02T17:15:48.165Z,19.53
2022-10-02T17:18:25.657Z,25.93
2022-10-02T17:20:55.971Z,17.60
2022-10-02T17:23:28.089Z,13.73
2022-10-02T17:26:02.233Z,22.40
2022-10-02T17:28:37.167Z,18.10
2022-10-02T17:31:19.843Z,17.93
2022-10-02T17:33:53.001Z,23.07
2022-10-02T17:36:24.967Z,28.90
2022-10-02T17:39:20.783Z,20.10
2022-10-02T17:41:53.904Z,19.60
2022-10-02T17:44:25.820Z,13.67
2022-10-02T17:47:14.505Z,19.87
2022-10-02T17:49:55.113Z,23.90
2022-10-02T17:52:45.235Z,19.50
2022-10-02T17:55:44.567Z,32.43
2022-10-02T17:58:16.870Z,18.97
2022-10-02T18:00:58.396Z,25.67
2022-10-02T18:03:54.429Z,22.70
2022-10-02T18:06:32.181Z,24.30
2022-10-02T18:09:30.402Z,36.37
2022-10-02T18:12:28.337Z,28.60
2022-10-02T18:15:27.163Z,18.93
2022-10-02T18:18:19.759Z,18.43
2022-10-02T18:20:54.971Z,27.37
2022-10-02T18:23:52.513Z,29.97
2022-10-02T18:26:30.244Z,23.10
2022-10-02T18:29:17.833Z,30.30
2022-10-02T18:31:58.337Z,22.33
2022-10-02T18:34:44.852Z,26.80
2022-10-02T18:37:26.652Z,43.50
2022-10-02T18:40:10.221Z,44.17
2022-10-02T18:42:47.399Z,28.37
2022-10-02T18:45:40.594Z,27.10
2022-10-02T18:48:23.089Z,20.17
2022-10-02T18:51:04.440Z,22.03
2022-10-02T18:53:52.159Z,20.40
2022-10-02T18:56:25.367Z,16.70
2022-10-02T18:59:05.445Z,23.60
2022-10-02T19:01:53.644Z,21.90
2022-10-02T19:04:35.580Z,18.90
2022-10-02T19:07:09.439Z,18.20
2022-10-02T19:09:37.168Z,31.30
2022-10-02T19:12:16.077Z,39.90
2022-10-02T19:14:45.866Z,26.00
2022-10-02T19:17:15.232Z,32.83
2022-10-02T19:19:43.574Z,25.73
2022-10-02T19:22:18.636Z,21.77
2022-10-02T19:24:48.959Z,33.17
2022-10-02T19:27:24.074Z,34.07
2022-10-02T19:29:55.795Z,25.77
2022-10-02T19:32:27.331Z,17.17
2022-10-02T19:35:01.133Z,19.87
2022-10-02T19:37:29.538Z,21.83
2022-10-02T19:39:59.804Z,22.33
2022-10-02T19:42:30.525Z,25.17
2022-10-02T19:45:02.951Z,18.80
2022-10-02T19:47:32.873Z,17.43
2022-10-02T19:50:02.658Z,20.13
2022-10-02T19:52:46.693Z,21.90
2022-10-02T19:55:24.008Z,23.33
2022-10-02T19:57:57.989Z,18.10
2022-10-02T20:00:25.911Z,24.93
2022-10-02T20:02:55.122Z,23.00
2022-10-02T20:05:25.015Z,25.43
2022-10-02T20:07:55.119Z,28.87
2022-10-02T20:10:29.785Z,34.47
2022-10-02T20:13:03.558Z,26.07
2022-10-02T20:15:55.508Z,16.50
2022-10-02T20:18:24.546Z,23.03
2022-10-02T20:20:55.271Z,22.73
2022-10-02T20:23:27.185Z,25.43
2022-10-02T20:25:58.329Z,24.77
2022-10-02T20:28:31.860Z,24.20
2022-10-02T20:31:02.567Z,23.40
2022-10-02T20:33:32.646Z,30.77
2022-10-02T20:36:03.213Z,23.30
2022-10-02T20:38:34.885Z,15.10
2022-10-02T20:41:08.998Z,24.87
2022-10-02T20:43:45.062Z,16.33
2022-10-02T20:46:36.789Z,18.53
2022-10-02T20:49:16.604Z,20.77
2022-10-02T20:52:19.902Z,20.30
2022-10-02T20:54:54.039Z,27.00
2022-10-02T20:58:00.618Z,21.87
2022-10-02T21:00:44.621Z,26.10
2022-10-02T21:03:39.428Z,32.70
2022-10-02T21:06:43.058Z,18.73
2022-10-02T21:09:39.639Z,15.57
2022-10-02T21:12:33.252Z,23.63
2022-10-02T21:15:29.361Z,16.80
2022-10-02T21:18:32.905Z,22.13
2022-10-02T21:21:28.650Z,27.40
2022-10-02T21:24:20.886Z,15.00
2022-10-02T21:27:03.249Z,22.23
2022-10-02T21:29:45.030Z,19.00
2022-10-02T21:32:33.529Z,15.90
2022-10-02T21:35:08.917Z,25.70
2022-10-02T21:37:47.874Z,24.27
2022-10-02T21:40:53.415Z,24.00
2022-10-02T21:43:45.077Z,26.60
2022-10-02T21:46:54.742Z,28.93
2022-10-02T21:49:54.304Z,20.37
2022-10-02T21:53:00.382Z,31.20
2022-10-02T21:55:59.900Z,27.13
2022-10-02T21:58:44.983Z,24.43
2022-10-02T22:01:30.693Z,27.47
2022-10-02T22:04:12.017Z,24.90
2022-10-02T22:06:45.229Z,19.57
2022-10-02T22:09:23.058Z,25.33
2022-10-02T22:12:05.545Z,23.97
2022-10-02T22:14:36.728Z,20.67
2022-10-02T22:17:13.167Z,21.83
2022-10-02T22:19:57.929Z,28.77
2022-10-02T22:22:35.473Z,18.60
2022-10-02T22:25:11.585Z,22.33
2022-10-02T22:27:50.785Z,31.97
2022-10-02T22:30:25.363Z,21.13
2022-10-02T22:33:11.959Z,26.03
2022-10-02T22:35:53.577Z,21.93
2022-10-02T22:38:26.681Z,20.20
2022-10-02T22:40:57.783Z,18.73
2022-10-02T22:43:30.605Z,28.60
2022-10-02T22:46:01.484Z,27.43
2022-10-02T22:48:36.236Z,22.73
2022-10-02T22:51:12.294Z,13.97
2022-10-02T22:53:42.593Z,21.17
2022-10-02T22:56:20.247Z,15.57
2022-10-02T22:58:56.467Z,22.70
2022-10-02T23:01:28.609Z,16.93
2022-10-02T23:03:59.986Z,15.63
2022-10-02T23:06:31.503Z,22.00
2022-10-02T23:09:11.760Z,12.00
2022-10-02T23:11:42.989Z,27.73
2022-10-02T23:14:20.863Z,26.70
2022-10-02T23:16:51.196Z,28.50
2022-10-02T23:19:25.599Z,21.73
2022-10-02T23:21:55.912Z,29.00
2022-10-02T23:24:29.575Z,16.83
2022-10-02T23:27:08.791Z,23.97
2022-10-02T23:29:45.696Z,27.37
2022-10-02T23:32:20.122Z,17.13
2022-10-02T23:34:52.774Z,22.83
2022-10-02T23:37:23.943Z,21.77
2022-10-02T23:39:55.528Z,19.17
2022-10-02T23:42:27.648Z,26.27
2022-10-02T23:45:00.995Z,25.27
2022-10-02T23:47:35.634Z,20.37
2022-10-02T23:50:03.589Z,17.33
2022-10-02T23:52:55.135Z,15.77
2022-10-02T23:55:45.920Z,16.87
2022-10-02T23:58:47.095Z,12.73
